sensor_id;sensor_type;location;lat;lon;timestamp;temperature;humidity
20915;DHT22;10617;52.032;5.298;2023-04-08T00:03:34;9.50;99.90
20915;DHT22;10617;52.032;5.298;2023-04-08T00:07:36;9.50;99.90
20915;DHT22;10617;52.032;5.298;2023-04-08T00:11:37;9.40;99.90
20915;DHT22;10617;52.032;5.298;2023-04-08T00:15:39;9.40;99.90
20915;DHT22;10617;52.032;5.298;2023-04-08T00:19:41;9.40;99.90
20915;DHT22;10617;52.032;5.298;2023-04-08T00:23:43;9.40;99.90
20915;DHT22;10617;52.032;5.298;2023-04-08T00:27:44;9.30;99.90
20915;DHT22;10617;52.032;5.298;2023-04-08T00:31:46;9.30;99.90
20915;DHT22;10617;52.032;5.298;2023-04-08T00:35:48;9.30;99.90
20915;DHT22;10617;52.032;5.298;2023-04-08T00:39:50;9.20;99.90
20915;DHT22;10617;52.032;5.298;2023-04-08T00:43:53;9.20;99.90
20915;DHT22;10617;52.032;5.298;2023-04-08T00:47:55;9.20;99.90
20915;DHT22;10617;52.032;5.298;2023-04-08T00:51:57;9.10;99.90
20915;DHT22;10617;52.032;5.298;2023-04-08T00:55:59;9.10;99.90
20915;DHT22;10617;52.032;5.298;2023-04-08T01:00:02;9.10;99.90
20915;DHT22;10617;52.032;5.298;2023-04-08T01:04:08;9.10;99.90
20915;DHT22;10617;52.032;5.298;2023-04-08T01:08:13;9.00;99.90
20915;DHT22;10617;52.032;5.298;2023-04-08T01:12:17;9.00;99.90
20915;DHT22;10617;52.032;5.298;2023-04-08T01:16:20;9.00;99.90
20915;DHT22;10617;52.032;5.298;2023-04-08T01:20:23;8.90;99.90
20915;DHT22;10617;52.032;5.298;2023-04-08T01:24:27;8.90;99.90
20915;DHT22;10617;52.032;5.298;2023-04-08T01:28:29;8.90;99.90
20915;DHT22;10617;52.032;5.298;2023-04-08T01:32:31;8.80;99.90
20915;DHT22;10617;52.032;5.298;2023-04-08T01:36:34;8.80;99.90
20915;DHT22;10617;52.032;5.298;2023-04-08T01:40:37;8.80;99.90
20915;DHT22;10617;52.032;5.298;2023-04-08T01:44:39;8.80;99.90
20915;DHT22;10617;52.032;5.298;2023-04-08T01:48:42;8.80;99.90
20915;DHT22;10617;52.032;5.298;2023-04-08T01:52:45;8.80;99.90
20915;DHT22;10617;52.032;5.298;2023-04-08T01:56:48;8.80;99.90
20915;DHT22;10617;52.032;5.298;2023-04-08T02:00:51;8.70;99.90
20915;DHT22;10617;52.032;5.298;2023-04-08T02:04:54;8.70;99.90
20915;DHT22;10617;52.032;5.298;2023-04-08T02:08:56;8.60;99.90
20915;DHT22;10617;52.032;5.298;2023-04-08T02:12:58;8.60;99.90
20915;DHT22;10617;52.032;5.298;2023-04-08T02:21:08;8.50;99.90
20915;DHT22;10617;52.032;5.298;2023-04-08T02:25:15;8.40;99.90
20915;DHT22;10617;52.032;5.298;2023-04-08T02:29:18;8.40;99.90
20915;DHT22;10617;52.032;5.298;2023-04-08T02:33:20;8.40;99.90
20915;DHT22;10617;52.032;5.298;2023-04-08T02:37:22;8.30;99.90
20915;DHT22;10617;52.032;5.298;2023-04-08T02:41:27;8.40;99.90
20915;DHT22;10617;52.032;5.298;2023-04-08T02:45:29;8.30;99.90
20915;DHT22;10617;52.032;5.298;2023-04-08T02:49:32;8.30;99.90
20915;DHT22;10617;52.032;5.298;2023-04-08T02:53:33;8.30;99.90
20915;DHT22;10617;52.032;5.298;2023-04-08T02:57:35;8.20;99.90
20915;DHT22;10617;52.032;5.298;2023-04-08T03:01:37;8.20;99.90
20915;DHT22;10617;52.032;5.298;2023-04-08T03:05:39;8.20;99.90
20915;DHT22;10617;52.032;5.298;2023-04-08T03:09:41;8.10;99.90
20915;DHT22;10617;52.032;5.298;2023-04-08T03:13:42;8.10;99.90
20915;DHT22;10617;52.032;5.298;2023-04-08T03:17:44;8.10;99.90
20915;DHT22;10617;52.032;5.298;2023-04-08T03:21:46;8.10;99.90
20915;DHT22;10617;52.032;5.298;2023-04-08T03:25:47;8.00;99.90
20915;DHT22;10617;52.032;5.298;2023-04-08T03:29:49;8.00;99.90
20915;DHT22;10617;52.032;5.298;2023-04-08T03:33:51;8.00;99.90
20915;DHT22;10617;52.032;5.298;2023-04-08T03:37:52;7.90;99.90
20915;DHT22;10617;52.032;5.298;2023-04-08T03:41:55;7.90;99.90
20915;DHT22;10617;52.032;5.298;2023-04-08T03:45:57;7.90;99.90
20915;DHT22;10617;52.032;5.298;2023-04-08T03:49:59;7.90;99.90
20915;DHT22;10617;52.032;5.298;2023-04-08T03:54:01;7.90;99.90
20915;DHT22;10617;52.032;5.298;2023-04-08T03:58:02;7.90;99.90
20915;DHT22;10617;52.032;5.298;2023-04-08T04:02:04;7.90;99.90
20915;DHT22;10617;52.032;5.298;2023-04-08T04:06:06;7.80;99.90
20915;DHT22;10617;52.032;5.298;2023-04-08T04:10:07;7.80;99.90
20915;DHT22;10617;52.032;5.298;2023-04-08T04:14:09;7.80;99.90
20915;DHT22;10617;52.032;5.298;2023-04-08T04:18:11;7.80;99.90
20915;DHT22;10617;52.032;5.298;2023-04-08T04:22:12;7.80;99.90
20915;DHT22;10617;52.032;5.298;2023-04-08T04:26:14;7.80;99.90
20915;DHT22;10617;52.032;5.298;2023-04-08T04:30:16;7.80;99.90
20915;DHT22;10617;52.032;5.298;2023-04-08T04:34:17;7.80;99.90
20915;DHT22;10617;52.032;5.298;2023-04-08T04:38:19;7.80;99.90
20915;DHT22;10617;52.032;5.298;2023-04-08T04:42:21;7.80;99.90
20915;DHT22;10617;52.032;5.298;2023-04-08T04:46:23;7.80;99.90
20915;DHT22;10617;52.032;5.298;2023-04-08T04:50:24;7.80;99.90
20915;DHT22;10617;52.032;5.298;2023-04-08T04:54:26;7.80;99.90
20915;DHT22;10617;52.032;5.298;2023-04-08T04:58:28;7.80;99.90
20915;DHT22;10617;52.032;5.298;2023-04-08T05:02:30;7.70;99.90
20915;DHT22;10617;52.032;5.298;2023-04-08T05:06:32;7.70;99.90
20915;DHT22;10617;52.032;5.298;2023-04-08T05:10:33;7.70;99.90
20915;DHT22;10617;52.032;5.298;2023-04-08T05:14:35;7.70;99.90
20915;DHT22;10617;52.032;5.298;2023-04-08T05:18:37;7.70;99.90
20915;DHT22;10617;52.032;5.298;2023-04-08T05:22:39;7.70;99.90
20915;DHT22;10617;52.032;5.298;2023-04-08T05:26:40;7.60;99.90
20915;DHT22;10617;52.032;5.298;2023-04-08T05:30:42;7.60;99.90
20915;DHT22;10617;52.032;5.298;2023-04-08T05:34:43;7.60;99.90
20915;DHT22;10617;52.032;5.298;2023-04-08T05:38:45;7.50;99.90
20915;DHT22;10617;52.032;5.298;2023-04-08T05:42:47;7.50;99.90
20915;DHT22;10617;52.032;5.298;2023-04-08T05:46:48;7.60;99.90
20915;DHT22;10617;52.032;5.298;2023-04-08T05:50:50;7.60;99.90
20915;DHT22;10617;52.032;5.298;2023-04-08T05:54:52;7.60;99.90
20915;DHT22;10617;52.032;5.298;2023-04-08T05:58:54;7.70;99.90
20915;DHT22;10617;52.032;5.298;2023-04-08T06:02:56;7.70;99.90
20915;DHT22;10617;52.032;5.298;2023-04-08T06:06:58;7.70;99.90
20915;DHT22;10617;52.032;5.298;2023-04-08T06:11:01;7.80;99.90
20915;DHT22;10617;52.032;5.298;2023-04-08T06:15:05;7.80;99.90
20915;DHT22;10617;52.032;5.298;2023-04-08T06:19:07;7.80;99.90
20915;DHT22;10617;52.032;5.298;2023-04-08T06:23:08;7.90;99.90
20915;DHT22;10617;52.032;5.298;2023-04-08T06:27:10;7.90;99.90
20915;DHT22;10617;52.032;5.298;2023-04-08T06:31:12;7.90;99.90
20915;DHT22;10617;52.032;5.298;2023-04-08T06:35:13;7.90;99.90
20915;DHT22;10617;52.032;5.298;2023-04-08T06:39:16;8.00;99.90
20915;DHT22;10617;52.032;5.298;2023-04-08T06:43:19;8.00;99.90
20915;DHT22;10617;52.032;5.298;2023-04-08T06:47:21;8.00;99.90
20915;DHT22;10617;52.032;5.298;2023-04-08T06:51:23;8.00;99.90
20915;DHT22;10617;52.032;5.298;2023-04-08T06:55:24;8.00;99.90
20915;DHT22;10617;52.032;5.298;2023-04-08T06:59:26;8.00;99.90
20915;DHT22;10617;52.032;5.298;2023-04-08T07:03:27;8.00;99.90
20915;DHT22;10617;52.032;5.298;2023-04-08T07:07:29;7.90;99.90
20915;DHT22;10617;52.032;5.298;2023-04-08T07:11:31;7.90;99.90
20915;DHT22;10617;52.032;5.298;2023-04-08T07:15:34;8.00;99.90
20915;DHT22;10617;52.032;5.298;2023-04-08T07:19:35;7.90;99.90
20915;DHT22;10617;52.032;5.298;2023-04-08T07:23:37;7.90;99.90
20915;DHT22;10617;52.032;5.298;2023-04-08T07:27:39;8.00;99.90
20915;DHT22;10617;52.032;5.298;2023-04-08T07:31:44;8.20;99.90
20915;DHT22;10617;52.032;5.298;2023-04-08T07:35:45;8.30;99.90
20915;DHT22;10617;52.032;5.298;2023-04-08T07:39:47;8.40;99.90
20915;DHT22;10617;52.032;5.298;2023-04-08T07:43:49;8.60;99.90
20915;DHT22;10617;52.032;5.298;2023-04-08T07:47:50;8.80;99.90
20915;DHT22;10617;52.032;5.298;2023-04-08T07:51:52;9.00;99.90
20915;DHT22;10617;52.032;5.298;2023-04-08T07:55:53;9.30;99.90
20915;DHT22;10617;52.032;5.298;2023-04-08T07:59:55;9.50;99.90
20915;DHT22;10617;52.032;5.298;2023-04-08T08:03:57;9.70;99.90
20915;DHT22;10617;52.032;5.298;2023-04-08T08:07:59;9.90;99.90
20915;DHT22;10617;52.032;5.298;2023-04-08T08:12:00;10.10;99.90
20915;DHT22;10617;52.032;5.298;2023-04-08T08:16:02;10.20;99.90
20915;DHT22;10617;52.032;5.298;2023-04-08T08:20:04;10.20;99.90
20915;DHT22;10617;52.032;5.298;2023-04-08T08:24:06;10.40;99.90
20915;DHT22;10617;52.032;5.298;2023-04-08T08:28:07;10.60;99.90
20915;DHT22;10617;52.032;5.298;2023-04-08T08:32:09;10.70;99.90
20915;DHT22;10617;52.032;5.298;2023-04-08T08:36:11;10.90;99.90
20915;DHT22;10617;52.032;5.298;2023-04-08T08:40:13;11.00;99.90
20915;DHT22;10617;52.032;5.298;2023-04-08T08:44:14;11.20;99.90
20915;DHT22;10617;52.032;5.298;2023-04-08T08:48:16;11.40;99.90
20915;DHT22;10617;52.032;5.298;2023-04-08T08:52:18;11.60;99.90
20915;DHT22;10617;52.032;5.298;2023-04-08T08:56:19;11.80;99.90
20915;DHT22;10617;52.032;5.298;2023-04-08T09:00:31;12.00;99.90
20915;DHT22;10617;52.032;5.298;2023-04-08T09:04:35;12.20;99.90
20915;DHT22;10617;52.032;5.298;2023-04-08T09:08:37;12.40;99.90
20915;DHT22;10617;52.032;5.298;2023-04-08T09:12:54;12.60;99.90
20915;DHT22;10617;52.032;5.298;2023-04-08T09:16:56;12.80;99.90
20915;DHT22;10617;52.032;5.298;2023-04-08T09:20:58;13.00;99.90
20915;DHT22;10617;52.032;5.298;2023-04-08T09:25:05;13.20;99.90
20915;DHT22;10617;52.032;5.298;2023-04-08T09:29:23;13.30;99.90
20915;DHT22;10617;52.032;5.298;2023-04-08T09:33:30;13.30;99.90
20915;DHT22;10617;52.032;5.298;2023-04-08T09:37:32;13.40;99.90
20915;DHT22;10617;52.032;5.298;2023-04-08T09:41:34;13.50;99.90
20915;DHT22;10617;52.032;5.298;2023-04-08T09:45:36;13.60;99.90
20915;DHT22;10617;52.032;5.298;2023-04-08T09:49:43;13.70;99.90
20915;DHT22;10617;52.032;5.298;2023-04-08T09:53:47;13.80;99.90
20915;DHT22;10617;52.032;5.298;2023-04-08T09:58:06;14.00;99.90
20915;DHT22;10617;52.032;5.298;2023-04-08T10:02:09;14.10;99.90
20915;DHT22;10617;52.032;5.298;2023-04-08T10:06:11;14.40;99.90
20915;DHT22;10617;52.032;5.298;2023-04-08T10:10:13;14.60;99.90
20915;DHT22;10617;52.032;5.298;2023-04-08T10:14:15;15.00;99.90
20915;DHT22;10617;52.032;5.298;2023-04-08T10:26:42;16.10;99.90
20915;DHT22;10617;52.032;5.298;2023-04-08T10:30:45;16.50;99.90
20915;DHT22;10617;52.032;5.298;2023-04-08T10:34:50;16.90;99.90
20915;DHT22;10617;52.032;5.298;2023-04-08T10:38:53;17.20;99.90
20915;DHT22;10617;52.032;5.298;2023-04-08T10:42:55;17.60;99.90
20915;DHT22;10617;52.032;5.298;2023-04-08T10:46:56;18.00;99.90
20915;DHT22;10617;52.032;5.298;2023-04-08T10:50:59;18.20;99.90
20915;DHT22;10617;52.032;5.298;2023-04-08T10:55:01;18.60;99.90
20915;DHT22;10617;52.032;5.298;2023-04-08T10:59:03;18.80;99.90
20915;DHT22;10617;52.032;5.298;2023-04-08T11:03:05;18.90;99.90
20915;DHT22;10617;52.032;5.298;2023-04-08T11:07:07;19.10;99.90
20915;DHT22;10617;52.032;5.298;2023-04-08T11:11:09;19.10;99.90
20915;DHT22;10617;52.032;5.298;2023-04-08T11:15:12;19.00;99.90
20915;DHT22;10617;52.032;5.298;2023-04-08T11:19:14;19.00;99.90
20915;DHT22;10617;52.032;5.298;2023-04-08T11:23:16;19.10;99.90
20915;DHT22;10617;52.032;5.298;2023-04-08T11:27:17;19.40;99.90
20915;DHT22;10617;52.032;5.298;2023-04-08T11:31:19;19.80;99.90
20915;DHT22;10617;52.032;5.298;2023-04-08T11:35:28;20.30;99.90
20915;DHT22;10617;52.032;5.298;2023-04-08T11:39:30;20.70;99.90
20915;DHT22;10617;52.032;5.298;2023-04-08T11:43:32;20.80;99.90
20915;DHT22;10617;52.032;5.298;2023-04-08T11:47:34;20.80;99.90
20915;DHT22;10617;52.032;5.298;2023-04-08T11:55:54;21.40;99.90
20915;DHT22;10617;52.032;5.298;2023-04-08T11:59:56;21.90;99.90
20915;DHT22;10617;52.032;5.298;2023-04-08T12:03:59;22.50;99.90
20915;DHT22;10617;52.032;5.298;2023-04-08T12:08:01;22.50;99.90
20915;DHT22;10617;52.032;5.298;2023-04-08T12:12:03;22.70;99.90
20915;DHT22;10617;52.032;5.298;2023-04-08T12:16:05;23.10;99.90
20915;DHT22;10617;52.032;5.298;2023-04-08T12:20:08;23.50;99.90
20915;DHT22;10617;52.032;5.298;2023-04-08T12:24:10;23.80;99.90
20915;DHT22;10617;52.032;5.298;2023-04-08T12:28:11;23.80;99.90
20915;DHT22;10617;52.032;5.298;2023-04-08T12:46:50;22.10;99.90
20915;DHT22;10617;52.032;5.298;2023-04-08T12:50:52;21.70;99.90
20915;DHT22;10617;52.032;5.298;2023-04-08T12:54:53;21.40;99.90
20915;DHT22;10617;52.032;5.298;2023-04-08T12:58:55;21.30;99.90
20915;DHT22;10617;52.032;5.298;2023-04-08T13:02:58;21.10;99.90
20915;DHT22;10617;52.032;5.298;2023-04-08T13:06:59;21.00;99.90
20915;DHT22;10617;52.032;5.298;2023-04-08T13:11:01;20.80;99.90
20915;DHT22;10617;52.032;5.298;2023-04-08T13:15:03;20.80;99.90
20915;DHT22;10617;52.032;5.298;2023-04-08T13:19:04;20.70;99.90
20915;DHT22;10617;52.032;5.298;2023-04-08T13:23:06;20.60;99.90
20915;DHT22;10617;52.032;5.298;2023-04-08T13:27:08;20.40;99.90
20915;DHT22;10617;52.032;5.298;2023-04-08T13:31:09;20.50;99.90
20915;DHT22;10617;52.032;5.298;2023-04-08T13:35:11;20.70;99.90
20915;DHT22;10617;52.032;5.298;2023-04-08T13:39:13;20.70;99.90
20915;DHT22;10617;52.032;5.298;2023-04-08T13:43:14;20.70;99.90
20915;DHT22;10617;52.032;5.298;2023-04-08T13:47:16;20.50;99.90
20915;DHT22;10617;52.032;5.298;2023-04-08T13:51:18;20.30;99.90
20915;DHT22;10617;52.032;5.298;2023-04-08T13:55:19;20.30;99.90
20915;DHT22;10617;52.032;5.298;2023-04-08T13:59:21;20.50;99.90
20915;DHT22;10617;52.032;5.298;2023-04-08T14:03:23;20.60;99.90
20915;DHT22;10617;52.032;5.298;2023-04-08T14:07:24;20.90;99.90
20915;DHT22;10617;52.032;5.298;2023-04-08T14:11:26;21.20;99.90
20915;DHT22;10617;52.032;5.298;2023-04-08T14:15:28;21.50;99.90
20915;DHT22;10617;52.032;5.298;2023-04-08T14:19:29;22.30;99.90
20915;DHT22;10617;52.032;5.298;2023-04-08T14:23:31;23.40;99.90
20915;DHT22;10617;52.032;5.298;2023-04-08T14:27:33;24.30;99.90
20915;DHT22;10617;52.032;5.298;2023-04-08T14:31:34;24.60;99.90
20915;DHT22;10617;52.032;5.298;2023-04-08T14:35:36;24.30;99.90
20915;DHT22;10617;52.032;5.298;2023-04-08T14:39:38;24.00;99.90
20915;DHT22;10617;52.032;5.298;2023-04-08T14:43:40;24.40;99.90
20915;DHT22;10617;52.032;5.298;2023-04-08T14:47:41;25.00;99.90
20915;DHT22;10617;52.032;5.298;2023-04-08T14:51:43;25.30;99.90
20915;DHT22;10617;52.032;5.298;2023-04-08T14:55:45;25.60;99.90
20915;DHT22;10617;52.032;5.298;2023-04-08T14:59:46;25.90;99.90
20915;DHT22;10617;52.032;5.298;2023-04-08T15:03:48;25.50;99.90
20915;DHT22;10617;52.032;5.298;2023-04-08T15:07:50;24.80;99.90
20915;DHT22;10617;52.032;5.298;2023-04-08T15:11:52;24.40;99.90
20915;DHT22;10617;52.032;5.298;2023-04-08T15:15:53;24.40;99.90
20915;DHT22;10617;52.032;5.298;2023-04-08T15:19:55;24.70;99.90
20915;DHT22;10617;52.032;5.298;2023-04-08T15:23:57;24.90;99.90
20915;DHT22;10617;52.032;5.298;2023-04-08T15:27:58;25.20;99.90
20915;DHT22;10617;52.032;5.298;2023-04-08T15:32:00;25.30;99.90
20915;DHT22;10617;52.032;5.298;2023-04-08T15:36:02;25.70;99.90
20915;DHT22;10617;52.032;5.298;2023-04-08T15:40:04;25.50;99.90
20915;DHT22;10617;52.032;5.298;2023-04-08T15:44:06;25.40;99.90
20915;DHT22;10617;52.032;5.298;2023-04-08T15:48:08;25.70;99.90
20915;DHT22;10617;52.032;5.298;2023-04-08T15:52:11;26.40;99.90
20915;DHT22;10617;52.032;5.298;2023-04-08T15:56:14;26.90;99.90
20915;DHT22;10617;52.032;5.298;2023-04-08T16:00:16;27.20;99.90
20915;DHT22;10617;52.032;5.298;2023-04-08T16:04:18;26.80;99.90
20915;DHT22;10617;52.032;5.298;2023-04-08T16:08:20;26.60;99.90
20915;DHT22;10617;52.032;5.298;2023-04-08T16:12:21;26.30;99.90
20915;DHT22;10617;52.032;5.298;2023-04-08T16:16:25;25.90;99.90
20915;DHT22;10617;52.032;5.298;2023-04-08T16:20:27;25.50;99.90
20915;DHT22;10617;52.032;5.298;2023-04-08T16:24:29;25.40;99.90
20915;DHT22;10617;52.032;5.298;2023-04-08T16:28:30;25.80;99.90
20915;DHT22;10617;52.032;5.298;2023-04-08T16:32:33;26.20;99.90
20915;DHT22;10617;52.032;5.298;2023-04-08T16:36:34;26.30;99.90
20915;DHT22;10617;52.032;5.298;2023-04-08T16:40:36;26.50;99.90
20915;DHT22;10617;52.032;5.298;2023-04-08T16:44:39;26.50;99.90
20915;DHT22;10617;52.032;5.298;2023-04-08T16:48:41;26.40;99.90
20915;DHT22;10617;52.032;5.298;2023-04-08T16:52:44;26.50;99.90
20915;DHT22;10617;52.032;5.298;2023-04-08T16:56:49;26.60;99.90
20915;DHT22;10617;52.032;5.298;2023-04-08T17:00:51;26.40;99.90
20915;DHT22;10617;52.032;5.298;2023-04-08T17:04:53;26.30;99.90
20915;DHT22;10617;52.032;5.298;2023-04-08T17:08:54;26.10;99.90
20915;DHT22;10617;52.032;5.298;2023-04-08T17:12:56;26.00;99.90
20915;DHT22;10617;52.032;5.298;2023-04-08T17:16:58;25.90;99.90
20915;DHT22;10617;52.032;5.298;2023-04-08T17:21:00;25.60;98.50
20915;DHT22;10617;52.032;5.298;2023-04-08T17:25:02;25.40;99.90
20915;DHT22;10617;52.032;5.298;2023-04-08T17:29:03;25.20;99.90
20915;DHT22;10617;52.032;5.298;2023-04-08T17:33:05;24.90;97.50
20915;DHT22;10617;52.032;5.298;2023-04-08T17:37:07;24.50;99.90
20915;DHT22;10617;52.032;5.298;2023-04-08T17:41:10;24.00;99.30
20915;DHT22;10617;52.032;5.298;2023-04-08T17:45:13;23.30;95.50
20915;DHT22;10617;52.032;5.298;2023-04-08T17:49:15;22.80;97.20
20915;DHT22;10617;52.032;5.298;2023-04-08T17:53:17;22.30;97.40
20915;DHT22;10617;52.032;5.298;2023-04-08T17:57:18;21.80;97.10
20915;DHT22;10617;52.032;5.298;2023-04-08T18:01:20;21.30;97.80
20915;DHT22;10617;52.032;5.298;2023-04-08T18:05:23;20.90;96.10
20915;DHT22;10617;52.032;5.298;2023-04-08T18:09:24;20.40;96.50
20915;DHT22;10617;52.032;5.298;2023-04-08T18:13:26;20.00;95.70
20915;DHT22;10617;52.032;5.298;2023-04-08T18:17:27;19.70;96.00
20915;DHT22;10617;52.032;5.298;2023-04-08T18:21:29;19.40;95.90
20915;DHT22;10617;52.032;5.298;2023-04-08T18:25:31;19.20;96.10
20915;DHT22;10617;52.032;5.298;2023-04-08T18:29:34;18.90;96.50
20915;DHT22;10617;52.032;5.298;2023-04-08T18:33:36;18.60;96.50
20915;DHT22;10617;52.032;5.298;2023-04-08T18:37:39;18.50;96.70
20915;DHT22;10617;52.032;5.298;2023-04-08T18:51:55;17.90;97.20
20915;DHT22;10617;52.032;5.298;2023-04-08T18:56:03;17.70;97.40
20915;DHT22;10617;52.032;5.298;2023-04-08T19:00:05;17.60;97.40
20915;DHT22;10617;52.032;5.298;2023-04-08T19:04:08;17.50;97.50
20915;DHT22;10617;52.032;5.298;2023-04-08T19:08:10;17.40;97.70
20915;DHT22;10617;52.032;5.298;2023-04-08T19:12:12;17.20;97.70
20915;DHT22;10617;52.032;5.298;2023-04-08T19:16:13;17.10;98.00
20915;DHT22;10617;52.032;5.298;2023-04-08T19:20:15;17.00;97.80
20915;DHT22;10617;52.032;5.298;2023-04-08T19:24:16;16.90;98.30
20915;DHT22;10617;52.032;5.298;2023-04-08T19:28:18;16.70;98.00
20915;DHT22;10617;52.032;5.298;2023-04-08T19:32:21;16.60;98.50
20915;DHT22;10617;52.032;5.298;2023-04-08T19:36:22;16.50;98.80
20915;DHT22;10617;52.032;5.298;2023-04-08T19:40:24;16.50;98.70
20915;DHT22;10617;52.032;5.298;2023-04-08T19:44:25;16.50;98.90
20915;DHT22;10617;52.032;5.298;2023-04-08T19:48:27;16.60;98.90
20915;DHT22;10617;52.032;5.298;2023-04-08T19:52:29;16.50;98.10
20915;DHT22;10617;52.032;5.298;2023-04-08T19:56:31;16.50;98.50
20915;DHT22;10617;52.032;5.298;2023-04-08T20:00:34;16.30;98.30
20915;DHT22;10617;52.032;5.298;2023-04-08T20:04:38;16.20;97.80
20915;DHT22;10617;52.032;5.298;2023-04-08T20:08:40;16.20;97.40
20915;DHT22;10617;52.032;5.298;2023-04-08T20:12:42;16.10;97.80
20915;DHT22;10617;52.032;5.298;2023-04-08T20:16:44;16.10;97.80
20915;DHT22;10617;52.032;5.298;2023-04-08T20:20:45;15.90;98.40
20915;DHT22;10617;52.032;5.298;2023-04-08T20:24:49;15.80;97.70
20915;DHT22;10617;52.032;5.298;2023-04-08T20:28:50;15.80;97.50
20915;DHT22;10617;52.032;5.298;2023-04-08T20:32:52;15.70;97.50
20915;DHT22;10617;52.032;5.298;2023-04-08T20:36:54;15.70;97.50
20915;DHT22;10617;52.032;5.298;2023-04-08T20:40:56;15.70;97.20
20915;DHT22;10617;52.032;5.298;2023-04-08T20:44:59;15.50;97.80
20915;DHT22;10617;52.032;5.298;2023-04-08T20:49:00;15.20;99.40
20915;DHT22;10617;52.032;5.298;2023-04-08T20:53:03;15.10;99.60
20915;DHT22;10617;52.032;5.298;2023-04-08T20:57:05;14.90;99.90
20915;DHT22;10617;52.032;5.298;2023-04-08T21:01:07;14.70;99.90
20915;DHT22;10617;52.032;5.298;2023-04-08T21:05:08;14.60;99.50
20915;DHT22;10617;52.032;5.298;2023-04-08T21:09:10;14.50;99.90
20915;DHT22;10617;52.032;5.298;2023-04-08T21:13:15;14.50;99.90
20915;DHT22;10617;52.032;5.298;2023-04-08T21:17:16;14.30;99.90
20915;DHT22;10617;52.032;5.298;2023-04-08T21:21:18;14.20;99.90
20915;DHT22;10617;52.032;5.298;2023-04-08T21:25:20;14.20;99.90
20915;DHT22;10617;52.032;5.298;2023-04-08T21:29:21;14.20;99.90
20915;DHT22;10617;52.032;5.298;2023-04-08T21:33:23;14.10;99.90
20915;DHT22;10617;52.032;5.298;2023-04-08T21:37:25;14.00;99.90
20915;DHT22;10617;52.032;5.298;2023-04-08T21:41:26;13.90;99.90
20915;DHT22;10617;52.032;5.298;2023-04-08T21:45:30;13.80;99.90
20915;DHT22;10617;52.032;5.298;2023-04-08T21:49:32;13.80;99.90
20915;DHT22;10617;52.032;5.298;2023-04-08T21:53:33;13.70;99.90
20915;DHT22;10617;52.032;5.298;2023-04-08T21:57:35;13.70;98.90
20915;DHT22;10617;52.032;5.298;2023-04-08T22:01:39;13.60;99.20
20915;DHT22;10617;52.032;5.298;2023-04-08T22:05:41;13.50;99.90
20915;DHT22;10617;52.032;5.298;2023-04-08T22:09:42;13.50;99.90
20915;DHT22;10617;52.032;5.298;2023-04-08T22:13:44;13.40;99.90
20915;DHT22;10617;52.032;5.298;2023-04-08T22:17:45;13.40;99.40
20915;DHT22;10617;52.032;5.298;2023-04-08T22:21:47;13.30;99.70
20915;DHT22;10617;52.032;5.298;2023-04-08T22:25:51;13.20;99.90
20915;DHT22;10617;52.032;5.298;2023-04-08T22:29:53;13.20;99.50
20915;DHT22;10617;52.032;5.298;2023-04-08T22:33:54;13.10;99.50
20915;DHT22;10617;52.032;5.298;2023-04-08T22:37:56;13.00;99.90
20915;DHT22;10617;52.032;5.298;2023-04-08T22:41:58;12.90;99.90
20915;DHT22;10617;52.032;5.298;2023-04-08T22:45:59;12.70;99.90
20915;DHT22;10617;52.032;5.298;2023-04-08T22:50:01;12.60;99.90
20915;DHT22;10617;52.032;5.298;2023-04-08T22:54:03;12.50;99.90
20915;DHT22;10617;52.032;5.298;2023-04-08T22:58:04;12.40;99.90
20915;DHT22;10617;52.032;5.298;2023-04-08T23:02:06;12.40;99.90
20915;DHT22;10617;52.032;5.298;2023-04-08T23:06:08;12.30;99.90
20915;DHT22;10617;52.032;5.298;2023-04-08T23:10:09;12.30;99.90
20915;DHT22;10617;52.032;5.298;2023-04-08T23:14:11;12.20;99.90
20915;DHT22;10617;52.032;5.298;2023-04-08T23:18:13;12.20;99.90
20915;DHT22;10617;52.032;5.298;2023-04-08T23:22:23;12.20;99.90
20915;DHT22;10617;52.032;5.298;2023-04-08T23:26:25;12.10;99.90
20915;DHT22;10617;52.032;5.298;2023-04-08T23:30:27;12.10;99.90
20915;DHT22;10617;52.032;5.298;2023-04-08T23:34:28;12.20;99.90
20915;DHT22;10617;52.032;5.298;2023-04-08T23:38:30;12.20;99.90
20915;DHT22;10617;52.032;5.298;2023-04-08T23:52:38;12.10;99.90
20915;DHT22;10617;52.032;5.298;2023-04-08T23:56:40;12.10;99.90
